createdAt,value
2018-04-13T00:01:01.248Z,98968.22
2018-04-13T00:03:29.078Z,98968.96
2018-04-13T00:05:58.010Z,98968.48
2018-04-13T00:08:26.059Z,98967.07
2018-04-13T00:10:54.675Z,98962.69
2018-04-13T00:13:28.711Z,98959.75
2018-04-13T00:15:56.203Z,98963.66
2018-04-13T00:18:24.609Z,98956.80
2018-04-13T00:20:58.119Z,98957.13
2018-04-13T00:23:31.593Z,98954.80
2018-04-13T00:26:04.955Z,98947.22
2018-04-13T00:28:32.710Z,98948.09
2018-04-13T00:31:01.048Z,98952.98
2018-04-13T00:33:29.213Z,98959.45
2018-04-13T00:36:02.558Z,98955.78
2018-04-13T00:38:31.046Z,98959.84
2018-04-13T00:41:04.261Z,98964.69
2018-04-13T00:43:33.475Z,98969.30
2018-04-13T00:46:07.054Z,98970.13
2018-04-13T00:48:41.370Z,98975.14
2018-04-13T00:51:11.454Z,98973.42
2018-04-13T00:53:39.221Z,98978.62
2018-04-13T00:56:08.363Z,98975.75
2018-04-13T00:58:42.551Z,98981.38
2018-04-13T01:01:16.063Z,98977.02
2018-04-13T01:03:56.073Z,98977.02
2018-04-13T01:06:23.693Z,98975.28
2018-04-13T01:08:56.996Z,98964.49
2018-04-13T01:14:01.701Z,98968.16
2018-04-13T01:16:29.910Z,98964.86
2018-04-13T01:18:58.135Z,98970.27
2018-04-13T01:21:50.148Z,98966.02
2018-04-13T01:24:24.275Z,98968.16
2018-04-13T01:26:52.321Z,98963.33
2018-04-13T01:29:20.021Z,98964.09
2018-04-13T01:32:06.773Z,98961.66
2018-04-13T01:34:35.802Z,98957.78
2018-04-13T01:37:03.613Z,98962.39
2018-04-13T01:39:37.491Z,98958.73
2018-04-13T01:42:05.267Z,98960.25
2018-04-13T01:44:38.621Z,98962.53
2018-04-13T01:47:07.205Z,98968.23
2018-04-13T01:49:34.663Z,98961.09
2018-04-13T01:52:07.608Z,98965.30
2018-04-13T01:54:40.748Z,98963.55
2018-04-13T01:57:08.221Z,98957.64
2018-04-13T01:59:41.643Z,98959.20
2018-04-13T02:02:09.369Z,98963.41
2018-04-13T02:04:36.861Z,98963.55
2018-04-13T02:07:16.149Z,98964.46
2018-04-13T02:09:43.655Z,98954.66
2018-04-13T02:12:17.047Z,98942.69
2018-04-13T02:14:44.811Z,98942.83
2018-04-13T02:17:12.297Z,98949.37
2018-04-13T02:19:39.754Z,98962.91
2018-04-13T02:22:13.137Z,98963.98
2018-04-13T02:24:40.672Z,98964.67
2018-04-13T02:27:08.378Z,98965.58
2018-04-13T02:29:35.972Z,98965.86
2018-04-13T02:32:03.414Z,98971.92
2018-04-13T02:34:42.271Z,98969.49
2018-04-13T02:37:09.735Z,98971.77
2018-04-13T02:39:42.938Z,98973.34
2018-04-13T02:42:10.423Z,98973.59
2018-04-13T02:44:44.634Z,98975.70
2018-04-13T02:47:12.336Z,98978.61
2018-04-13T02:49:45.275Z,98976.91
2018-04-13T02:52:13.453Z,98984.55
2018-04-13T02:54:40.902Z,98991.48
2018-04-13T02:57:10.928Z,98996.45
2018-04-13T02:59:38.385Z,99001.43
2018-04-13T03:02:05.855Z,98996.38
2018-04-13T03:04:38.856Z,98999.20
2018-04-13T03:07:06.575Z,98997.02
2018-04-13T03:09:40.443Z,99000.25
2018-04-13T03:12:07.981Z,98992.33
2018-04-13T03:14:42.290Z,98987.06
2018-04-13T03:17:11.214Z,98991.59
2018-04-13T03:19:50.539Z,98997.36
2018-04-13T03:22:23.440Z,99002.66
2018-04-13T03:24:56.594Z,99005.20
2018-04-13T03:27:24.125Z,99007.08
2018-04-13T03:29:53.083Z,99004.22
2018-04-13T03:38:15.830Z,99014.82
2018-04-13T03:40:43.870Z,99008.84
2018-04-13T03:43:18.432Z,99009.63
2018-04-13T03:45:46.009Z,99009.05
2018-04-13T03:48:13.527Z,99012.64
2018-04-13T03:50:41.041Z,99012.95
2018-04-13T03:53:14.399Z,99020.06
2018-04-13T03:55:43.091Z,99019.70
2018-04-13T03:58:10.945Z,99015.38
2018-04-13T04:00:39.312Z,99021.34
2018-04-13T04:03:06.798Z,99024.79
2018-04-13T04:05:34.371Z,99025.77
2018-04-13T04:08:07.600Z,99034.53
2018-04-13T04:10:51.332Z,99037.74
2018-04-13T04:13:18.828Z,99037.39
2018-04-13T04:15:52.254Z,99035.65
2018-04-13T04:18:19.791Z,99035.02
2018-04-13T04:20:59.080Z,99037.61
2018-04-13T04:23:38.136Z,99038.95
2018-04-13T04:26:22.176Z,99037.03
2018-04-13T04:29:06.026Z,99037.03
2018-04-13T04:34:25.937Z,99043.33
2018-04-13T04:36:54.272Z,99060.53
2018-04-13T04:39:21.853Z,99054.95
2018-04-13T04:41:51.584Z,99050.88
2018-04-13T04:44:19.966Z,99054.91
2018-04-13T04:46:53.343Z,99054.91
2018-04-13T04:49:20.816Z,99047.72
2018-04-13T05:00:31.413Z,99066.41
2018-04-13T05:03:08.701Z,99069.30
2018-04-13T05:05:36.231Z,99077.84
2018-04-13T05:08:10.407Z,99080.41
2018-04-13T05:10:38.923Z,99078.30
2018-04-13T05:13:07.652Z,99090.36
2018-04-13T05:15:36.315Z,99086.30
2018-04-13T05:18:04.171Z,99082.82
2018-04-13T05:20:32.034Z,99076.96
2018-04-13T05:23:04.535Z,99064.70
2018-04-13T05:25:37.972Z,99060.92
2018-04-13T05:28:06.466Z,99067.67
2018-04-13T05:30:34.751Z,99065.25
2018-04-13T05:33:02.395Z,99065.43
2018-04-13T05:35:30.926Z,99065.25
2018-04-13T05:37:58.638Z,99063.37
2018-04-13T05:40:26.081Z,99067.27
2018-04-13T05:42:59.362Z,99073.67
2018-04-13T05:45:26.909Z,99077.13
2018-04-13T05:47:54.434Z,99076.88
2018-04-13T05:50:33.813Z,99083.12
2018-04-13T05:56:03.572Z,99085.13
2018-04-13T05:58:31.042Z,99096.98
2018-04-13T06:00:58.748Z,99100.30
2018-04-13T06:03:31.674Z,99104.38
2018-04-13T06:06:05.572Z,99096.19
2018-04-13T06:08:33.167Z,99096.09
2018-04-13T06:11:00.673Z,99094.70
2018-04-13T06:13:28.321Z,99100.93
2018-04-13T06:15:55.838Z,99101.02
2018-04-13T06:18:29.332Z,99100.89
2018-04-13T06:21:02.717Z,99091.58
2018-04-13T06:23:30.253Z,99092.39
2018-04-13T06:25:57.709Z,99088.80
2018-04-13T06:28:25.257Z,99084.73
2018-04-13T06:30:52.892Z,99089.28
2018-04-13T06:33:26.221Z,99088.70
2018-04-13T06:35:53.735Z,99090.92
2018-04-13T06:38:21.183Z,99096.02
2018-04-13T06:40:48.652Z,99084.41
2018-04-13T06:43:21.695Z,99086.37
2018-04-13T06:45:49.267Z,99085.87
2018-04-13T06:48:28.391Z,99088.60
2018-04-13T06:50:55.877Z,99090.89
2018-04-13T06:53:23.371Z,99094.34
2018-04-13T06:55:50.877Z,99091.16
2018-04-13T06:58:18.361Z,99095.88
2018-04-13T07:00:45.869Z,99094.45
2018-04-13T07:03:19.100Z,99096.77
2018-04-13T07:05:52.463Z,99108.45
2018-04-13T07:08:20.010Z,99104.79
2018-04-13T07:10:53.220Z,99101.70
2018-04-13T07:13:20.721Z,99099.59
2018-04-13T07:15:54.136Z,99114.73
2018-04-13T07:18:21.668Z,99120.55
2018-04-13T07:20:55.201Z,99116.77
2018-04-13T07:23:22.643Z,99118.75
2018-04-13T07:25:50.212Z,99118.69
2018-04-13T07:28:17.679Z,99123.56
2018-04-13T07:30:45.173Z,99124.59
2018-04-13T07:33:13.241Z,99119.11
2018-04-13T07:35:45.659Z,99127.21
2018-04-13T07:38:13.217Z,99126.09
2018-04-13T07:40:41.030Z,99125.73
2018-04-13T07:43:14.221Z,99128.59
2018-04-13T07:45:47.624Z,99138.36
2018-04-13T07:48:15.056Z,99140.28
2018-04-13T07:50:43.543Z,99141.23
2018-04-13T07:53:11.214Z,99141.33
2018-04-13T07:55:38.723Z,99148.98
2018-04-13T07:58:17.856Z,99153.41
2018-04-13T08:00:45.821Z,99154.04
2018-04-13T08:03:12.846Z,99162.40
2018-04-13T08:05:46.034Z,99155.69
2018-04-13T08:08:13.544Z,99167.20
2018-04-13T08:10:41.007Z,99164.29
2018-04-13T08:13:14.561Z,99165.67
2018-04-13T08:15:47.768Z,99168.66
2018-04-13T08:18:15.246Z,99167.55
2018-04-13T08:20:42.756Z,99170.67
2018-04-13T08:23:10.361Z,99172.75
2018-04-13T08:25:37.861Z,99165.75
2018-04-13T08:28:05.429Z,99170.40
2018-04-13T08:30:33.124Z,99173.31
2018-04-13T08:35:59.215Z,99167.56
2018-04-13T08:38:32.290Z,99162.75
2018-04-13T08:40:59.923Z,99173.48
2018-04-13T08:43:27.345Z,99173.28
2018-04-13T08:45:54.900Z,99169.80
2018-04-13T08:48:22.467Z,99169.02
2018-04-13T08:50:50.209Z,99164.17
2018-04-13T08:53:17.712Z,99165.80
2018-04-13T08:55:50.850Z,99162.30
2018-04-13T08:58:18.368Z,99161.25
2018-04-13T09:00:52.315Z,99161.66
2018-04-13T09:03:19.878Z,99167.98
2018-04-13T09:05:47.499Z,99162.29
2018-04-13T09:08:15.030Z,99153.75
2018-04-13T09:10:48.394Z,99147.20
2018-04-13T09:13:15.948Z,99145.64
2018-04-13T09:15:43.514Z,99147.90
2018-04-13T09:18:16.906Z,99139.01
2018-04-13T09:20:44.445Z,99140.36
2018-04-13T09:23:11.938Z,99138.42
2018-04-13T09:25:39.373Z,99146.20
2018-04-13T09:28:06.855Z,99144.03
2018-04-13T09:30:52.749Z,99145.27
2018-04-13T09:33:20.249Z,99146.34
2018-04-13T09:35:47.805Z,99141.30
2018-04-13T09:38:15.347Z,99145.17
2018-04-13T09:40:42.831Z,99141.59
2018-04-13T09:43:15.233Z,99147.39
2018-04-13T09:45:54.577Z,99142.83
2018-04-13T09:48:22.050Z,99145.14
2018-04-13T09:50:49.519Z,99144.10
2018-04-13T09:53:22.657Z,99144.53
2018-04-13T09:55:55.993Z,99139.19
2018-04-13T09:58:23.449Z,99139.58
2018-04-13T10:00:56.529Z,99140.79
2018-04-13T10:03:35.423Z,99141.97
2018-04-13T10:06:02.899Z,99144.27
2018-04-13T10:08:30.357Z,99132.19
2018-04-13T10:11:03.657Z,99130.42
2018-04-13T10:13:36.939Z,99131.30
2018-04-13T10:16:04.485Z,99122.09
2018-04-13T10:18:32.007Z,99127.11
2018-04-13T10:20:59.499Z,99133.88
2018-04-13T10:23:26.993Z,99135.81
2018-04-13T10:26:00.203Z,99136.52
2018-04-13T10:28:33.281Z,99137.75
2018-04-13T10:31:06.635Z,99142.13
2018-04-13T10:33:40.080Z,99138.64
2018-04-13T10:36:07.549Z,99137.19
2018-04-13T10:38:35.059Z,99139.77
2018-04-13T10:41:08.187Z,99148.67
2018-04-13T10:43:35.735Z,99145.45
2018-04-13T10:46:09.217Z,99150.07
2018-04-13T10:48:42.451Z,99148.00
2018-04-13T10:51:10.076Z,99148.86
2018-04-13T10:53:43.151Z,99164.73
2018-04-13T10:56:10.650Z,99154.91
2018-04-13T10:58:38.133Z,99166.88
2018-04-13T11:01:05.847Z,99156.37
2018-04-13T11:03:33.594Z,99155.64
2018-04-13T11:06:06.853Z,99155.87
2018-04-13T11:08:34.367Z,99153.73
2018-04-13T11:11:01.859Z,99156.02
2018-04-13T11:13:35.310Z,99155.41
2018-04-13T11:16:08.814Z,99152.14
2018-04-13T11:18:42.320Z,99146.27
2018-04-13T11:21:09.903Z,99158.33
2018-04-13T11:23:43.279Z,99146.42
2018-04-13T11:26:16.736Z,99153.66
2018-04-13T11:28:44.266Z,99155.15
2018-04-13T11:31:11.822Z,99159.06
2018-04-13T11:33:45.148Z,99164.52
2018-04-13T11:36:12.583Z,99153.08
2018-04-13T11:38:40.086Z,99162.17
2018-04-13T11:41:13.273Z,99167.43
2018-04-13T11:43:40.795Z,99165.09
2018-04-13T11:46:08.291Z,99161.78
2018-04-13T11:48:41.311Z,99173.69
2018-04-13T11:51:08.796Z,99169.62
2018-04-13T11:53:42.085Z,99173.98
2018-04-13T11:56:09.534Z,99176.80
2018-04-13T11:58:37.014Z,99177.73
2018-04-13T12:01:04.497Z,99180.97
2018-04-13T12:03:31.971Z,99185.06
2018-04-13T12:05:59.438Z,99182.28
2018-04-13T12:08:26.915Z,99191.23
2018-04-13T12:10:54.389Z,99186.55
2018-04-13T12:13:21.862Z,99192.49
2018-04-13T12:15:49.355Z,99185.26
2018-04-13T12:18:16.829Z,99181.74
2018-04-13T12:20:44.303Z,99189.86
2018-04-13T12:23:11.828Z,99193.53
2018-04-13T12:25:39.310Z,99195.97
2018-04-13T12:28:06.845Z,99208.80
2018-04-13T12:30:34.892Z,99209.13
2018-04-13T12:33:02.351Z,99214.73
2018-04-13T12:35:29.921Z,99224.50
2018-04-13T12:37:57.438Z,99220.31
2018-04-13T12:40:24.931Z,99240.13
2018-04-13T12:42:52.450Z,99242.66
2018-04-13T12:45:20.021Z,99246.90
2018-04-13T12:47:47.496Z,99245.02
2018-04-13T12:50:14.998Z,99249.75
2018-04-13T12:52:42.514Z,99253.61
2018-04-13T12:55:10.205Z,99258.78
2018-04-13T12:57:37.502Z,99266.31
2018-04-13T13:00:04.978Z,99269.84
2018-04-13T13:02:32.485Z,99278.14
2018-04-13T13:05:00.341Z,99273.11
2018-04-13T13:07:27.774Z,99270.78
2018-04-13T13:09:55.330Z,99267.07
2018-04-13T13:12:22.780Z,99261.51
2018-04-13T13:14:50.342Z,99259.36
2018-04-13T13:17:17.831Z,99261.04
2018-04-13T13:19:45.340Z,99262.69
2018-04-13T13:27:58.245Z,99272.92
2018-04-13T13:30:25.767Z,99269.03
2018-04-13T13:32:53.279Z,99271.23
2018-04-13T13:35:20.784Z,99277.30
2018-04-13T13:37:48.351Z,99272.73
2018-04-13T13:40:15.863Z,99275.27
2018-04-13T13:42:43.371Z,99275.98
2018-04-13T13:45:10.908Z,99281.86
2018-04-13T13:47:38.450Z,99278.95
2018-04-13T13:50:05.937Z,99274.90
2018-04-13T13:52:33.419Z,99280.77
2018-04-13T13:55:00.891Z,99276.93
2018-04-13T13:57:28.390Z,99279.55
2018-04-13T13:59:55.864Z,99283.50
2018-04-13T14:02:24.294Z,99284.55
2018-04-13T14:04:51.965Z,99281.41
2018-04-13T14:07:19.504Z,99293.36
2018-04-13T14:09:47.027Z,99294.50
2018-04-13T14:12:14.506Z,99293.35
2018-04-13T14:14:41.974Z,99298.34
2018-04-13T14:17:09.472Z,99305.68
2018-04-13T14:19:36.974Z,99305.57
2018-04-13T14:22:10.326Z,99304.27
2018-04-13T14:24:37.784Z,99315.58
2018-04-13T14:27:05.294Z,99313.41
2018-04-13T14:29:32.818Z,99308.20
2018-04-13T14:32:00.317Z,99307.94
2018-04-13T14:34:27.840Z,99312.14
2018-04-13T14:36:55.319Z,99312.19
2018-04-13T14:39:23.753Z,99301.25
2018-04-13T14:41:51.464Z,99299.85
2018-04-13T14:44:19.074Z,99302.30
2018-04-13T14:46:46.708Z,99298.84
2018-04-13T14:49:14.198Z,99292.80
2018-04-13T14:51:41.782Z,99299.12
2018-04-13T14:54:13.820Z,99308.46
2018-04-13T14:56:41.290Z,99309.09
2018-04-13T14:59:08.856Z,99302.57
2018-04-13T15:01:36.376Z,99304.59
2018-04-13T15:04:04.050Z,99310.49
2018-04-13T15:06:31.735Z,99309.00
2018-04-13T15:08:59.230Z,99313.77
2018-04-13T15:11:26.724Z,99312.88
2018-04-13T15:13:54.198Z,99312.12
2018-04-13T15:16:21.710Z,99317.84
2018-04-13T15:18:49.453Z,99318.05
2018-04-13T15:21:16.918Z,99312.91
2018-04-13T15:23:44.468Z,99332.39
2018-04-13T15:26:12.053Z,99322.09
2018-04-13T15:28:39.474Z,99339.78
2018-04-13T15:31:07.004Z,99344.50
2018-04-13T15:33:34.539Z,99335.70
2018-04-13T15:36:02.084Z,99351.05
2018-04-13T15:38:29.581Z,99349.49
2018-04-13T15:40:57.055Z,99355.63
2018-04-13T15:43:24.591Z,99354.05
2018-04-13T15:45:52.094Z,99348.66
2018-04-13T15:48:19.594Z,99352.23
2018-04-13T15:50:47.096Z,99357.19
2018-04-13T15:53:14.966Z,99355.53
2018-04-13T15:55:42.474Z,99358.77
2018-04-13T15:58:10.055Z,99367.55
2018-04-13T16:00:37.540Z,99373.09
2018-04-13T16:03:05.056Z,99379.06
2018-04-13T16:05:32.547Z,99383.29
2018-04-13T16:08:00.091Z,99390.28
2018-04-13T16:10:27.800Z,99387.19
2018-04-13T16:12:55.458Z,99394.61
2018-04-13T16:15:22.973Z,99405.42
2018-04-13T16:17:50.497Z,99405.23
2018-04-13T16:20:17.976Z,99401.45
2018-04-13T16:22:59.776Z,99403.70
2018-04-13T16:25:27.571Z,99396.42
2018-04-13T16:27:55.498Z,99396.06
2018-04-13T16:30:23.220Z,99404.36
2018-04-13T16:32:50.745Z,99397.96
2018-04-13T16:35:18.253Z,99391.73
2018-04-13T16:37:45.696Z,99389.59
2018-04-13T16:40:13.150Z,99395.48
2018-04-13T16:45:43.214Z,99399.30
2018-04-13T16:48:10.790Z,99404.86
2018-04-13T16:50:38.260Z,99399.31
2018-04-13T16:53:05.763Z,99409.56
2018-04-13T16:55:33.308Z,99418.82
2018-04-13T16:58:00.832Z,99408.02
2018-04-13T17:00:28.290Z,99423.03
2018-04-13T17:02:55.833Z,99434.14
2018-04-13T17:05:23.439Z,99439.05
2018-04-13T17:07:51.689Z,99455.32
2018-04-13T17:10:19.401Z,99447.21
2018-04-13T17:12:47.474Z,99441.92
2018-04-13T17:15:14.976Z,99446.19
2018-04-13T17:17:42.778Z,99455.90
2018-04-13T17:20:10.262Z,99455.19
2018-04-13T17:22:38.674Z,99456.25
2018-04-13T17:25:06.312Z,99464.62
2018-04-13T17:27:33.783Z,99471.66
2018-04-13T17:30:01.229Z,99473.39
2018-04-13T17:32:29.119Z,99468.75
2018-04-13T17:34:56.595Z,99470.44
2018-04-13T17:37:24.711Z,99482.70
2018-04-13T17:39:52.171Z,99481.55
2018-04-13T17:42:19.668Z,99490.37
2018-04-13T17:44:47.127Z,99500.15
2018-04-13T17:47:14.777Z,99496.73
2018-04-13T17:49:42.333Z,99514.01
2018-04-13T17:52:09.924Z,99502.58
2018-04-13T17:54:37.449Z,99495.77
2018-04-13T17:57:04.935Z,99502.13
2018-04-13T17:59:32.983Z,99505.91
2018-04-13T18:02:00.495Z,99511.56
2018-04-13T18:04:27.981Z,99522.59
2018-04-13T18:06:55.596Z,99526.19
2018-04-13T18:09:23.103Z,99524.67
2018-04-13T18:12:04.830Z,99534.75
2018-04-13T18:14:32.336Z,99526.98
2018-04-13T18:16:59.850Z,99529.53
2018-04-13T18:19:27.308Z,99527.17
2018-04-13T18:21:54.790Z,99541.15
2018-04-13T18:24:22.306Z,99536.39
2018-04-13T18:26:49.798Z,99535.20
2018-04-13T18:29:17.342Z,99542.13
2018-04-13T18:31:44.812Z,99551.05
2018-04-13T18:34:12.265Z,99541.53
2018-04-13T18:36:39.784Z,99545.77
2018-04-13T18:39:07.307Z,99551.09
2018-04-13T18:41:34.801Z,99557.59
2018-04-13T18:44:02.305Z,99556.35
2018-04-13T18:46:29.839Z,99555.85
2018-04-13T18:48:57.310Z,99555.62
2018-04-13T18:51:24.778Z,99562.75
2018-04-13T18:53:52.288Z,99569.94
2018-04-13T18:56:19.902Z,99566.77
2018-04-13T18:58:47.420Z,99571.95
2018-04-13T19:01:14.898Z,99587.14
2018-04-13T19:03:42.388Z,99588.31
2018-04-13T19:06:09.912Z,99606.52
2018-04-13T19:08:37.452Z,99599.59
2018-04-13T19:11:04.899Z,99598.95
2018-04-13T19:13:32.371Z,99604.28
2018-04-13T19:15:59.910Z,99608.12
2018-04-13T19:18:28.410Z,99611.20
2018-04-13T19:20:55.877Z,99601.86
2018-04-13T19:23:33.029Z,99617.09
2018-04-13T19:26:00.571Z,99617.33
2018-04-13T19:28:28.211Z,99620.63
2018-04-13T19:30:55.803Z,99620.87
2018-04-13T19:33:23.471Z,99618.45
2018-04-13T19:35:50.965Z,99626.52
2018-04-13T19:38:18.539Z,99624.69
2018-04-13T19:40:46.111Z,99620.85
2018-04-13T19:43:13.673Z,99630.55
2018-04-13T19:45:41.186Z,99628.33
2018-04-13T19:48:08.835Z,99639.78
2018-04-13T19:50:36.399Z,99640.74
2018-04-13T19:53:04.203Z,99647.85
2018-04-13T19:55:31.734Z,99637.72
2018-04-13T19:57:59.279Z,99646.02
2018-04-13T20:00:26.735Z,99635.10
2018-04-13T20:02:59.261Z,99634.52
2018-04-13T20:05:26.731Z,99632.86
2018-04-13T20:07:54.421Z,99628.67
2018-04-13T20:10:22.000Z,99635.37
2018-04-13T20:12:49.851Z,99642.95
2018-04-13T20:15:20.172Z,99641.91
2018-04-13T20:17:48.752Z,99640.30
2018-04-13T20:20:16.339Z,99637.00
2018-04-13T20:22:43.869Z,99650.53
2018-04-13T20:25:11.419Z,99648.03
2018-04-13T20:27:38.875Z,99646.34
2018-04-13T20:30:06.383Z,99637.44
2018-04-13T20:32:33.905Z,99645.61
2018-04-13T20:35:01.396Z,99644.20
2018-04-13T20:37:28.861Z,99646.28
2018-04-13T20:39:56.403Z,99648.10
2018-04-13T20:42:23.921Z,99649.20
2018-04-13T20:44:51.417Z,99650.87
2018-04-13T20:47:18.881Z,99660.80
2018-04-13T20:49:46.355Z,99664.17
2018-04-13T20:52:13.907Z,99669.59
2018-04-13T20:54:41.472Z,99679.59
2018-04-13T20:57:08.924Z,99681.09
2018-04-13T20:59:36.662Z,99679.52
2018-04-13T21:02:04.240Z,99677.78
2018-04-13T21:04:31.722Z,99691.38
2018-04-13T21:06:59.330Z,99692.88
2018-04-13T21:09:26.888Z,99693.28
2018-04-13T21:11:54.408Z,99698.99
2018-04-13T21:14:21.964Z,99701.05
2018-04-13T21:16:49.478Z,99706.07
2018-04-13T21:19:17.062Z,99705.22
2018-04-13T21:21:44.694Z,99701.91
2018-04-13T21:24:12.158Z,99709.92
2018-04-13T21:26:39.714Z,99707.33
2018-04-13T21:29:07.179Z,99710.56
2018-04-13T21:31:34.659Z,99714.66
2018-04-13T21:34:02.314Z,99716.52
2018-04-13T21:36:29.861Z,99721.33
2018-04-13T21:38:57.577Z,99727.20
2018-04-13T21:41:25.358Z,99738.13
2018-04-13T21:43:54.826Z,99736.50
2018-04-13T21:48:56.114Z,99746.79
2018-04-13T21:51:23.665Z,99752.51
2018-04-13T21:53:51.113Z,99748.82
2018-04-13T21:56:18.614Z,99754.17
2018-04-13T21:58:46.134Z,99757.94
2018-04-13T22:01:13.614Z,99760.61
2018-04-13T22:03:41.135Z,99773.57
2018-04-13T22:06:08.655Z,99771.46
2018-04-13T22:08:36.165Z,99770.58
2018-04-13T22:11:03.759Z,99779.32
2018-04-13T22:13:31.292Z,99785.84
2018-04-13T22:15:58.785Z,99795.52
2018-04-13T22:18:26.314Z,99801.72
2018-04-13T22:20:54.321Z,99792.04
2018-04-13T22:23:21.878Z,99805.80
2018-04-13T22:25:49.335Z,99809.42
2018-04-13T22:28:16.858Z,99816.72
2018-04-13T22:30:44.377Z,99813.23
2018-04-13T22:33:11.854Z,99822.70
2018-04-13T22:35:39.418Z,99816.92
2018-04-13T22:38:06.930Z,99824.34
2018-04-13T22:40:34.416Z,99830.63
2018-04-13T22:43:16.360Z,99830.41
2018-04-13T22:45:43.802Z,99840.12
2018-04-13T22:48:11.298Z,99840.03
2018-04-13T22:50:38.788Z,99854.47
2018-04-13T22:53:06.247Z,99850.86
2018-04-13T22:55:33.724Z,99852.72
2018-04-13T22:58:01.269Z,99866.75
2018-04-13T23:00:28.779Z,99864.47
2018-04-13T23:02:56.320Z,99870.64
2018-04-13T23:05:23.764Z,99873.88
2018-04-13T23:07:51.260Z,99882.12
2018-04-13T23:10:18.734Z,99899.16
2018-04-13T23:12:46.170Z,99897.41
2018-04-13T23:15:13.669Z,99894.64
2018-04-13T23:17:41.180Z,99899.48
2018-04-13T23:20:08.887Z,99905.72
2018-04-13T23:22:38.324Z,99904.07
2018-04-13T23:25:05.902Z,99903.73
2018-04-13T23:27:33.346Z,99917.69
2018-04-13T23:30:01.857Z,99911.66
2018-04-13T23:32:48.063Z,99919.31
2018-04-13T23:35:15.815Z,99924.89
2018-04-13T23:37:43.327Z,99928.53
2018-04-13T23:40:10.997Z,99925.00
2018-04-13T23:42:38.689Z,99936.94
2018-04-13T23:45:06.159Z,99932.78
2018-04-13T23:47:33.734Z,99941.15
2018-04-13T23:50:01.212Z,99949.84
2018-04-13T23:52:34.435Z,99951.23
2018-04-13T23:55:02.574Z,99948.31
2018-04-13T23:57:30.048Z,99949.80
2018-04-13T23:59:57.516Z,99954.84
